sensor_id;sensor_type;location;lat;lon;timestamp;P1;durP1;ratioP1;P2;durP2;ratioP2
37593;SDS011;23441;50.856;6.076;2023-12-07T00:00:25;34.90;;;19.55;;
37593;SDS011;23441;50.856;6.076;2023-12-07T00:03:11;40.63;;;20.77;;
37593;SDS011;23441;50.856;6.076;2023-12-07T00:05:57;42.30;;;22.10;;
37593;SDS011;23441;50.856;6.076;2023-12-07T00:08:43;37.10;;;19.90;;
37593;SDS011;23441;50.856;6.076;2023-12-07T00:11:29;36.15;;;19.55;;
37593;SDS011;23441;50.856;6.076;2023-12-07T00:14:15;44.55;;;21.85;;
37593;SDS011;23441;50.856;6.076;2023-12-07T00:17:01;37.85;;;21.65;;
37593;SDS011;23441;50.856;6.076;2023-12-07T00:19:50;40.65;;;22.02;;
37593;SDS011;23441;50.856;6.076;2023-12-07T00:22:39;42.35;;;20.17;;
37593;SDS011;23441;50.856;6.076;2023-12-07T00:25:33;37.53;;;20.42;;
37593;SDS011;23441;50.856;6.076;2023-12-07T00:28:19;45.00;;;21.27;;
37593;SDS011;23441;50.856;6.076;2023-12-07T00:31:05;44.70;;;21.85;;
37593;SDS011;23441;50.856;6.076;2023-12-07T00:33:51;36.38;;;19.52;;
37593;SDS011;23441;50.856;6.076;2023-12-07T00:36:37;41.63;;;21.55;;
37593;SDS011;23441;50.856;6.076;2023-12-07T00:39:26;42.88;;;19.73;;
37593;SDS011;23441;50.856;6.076;2023-12-07T00:42:11;41.60;;;18.85;;
37593;SDS011;23441;50.856;6.076;2023-12-07T00:44:58;40.17;;;20.25;;
37593;SDS011;23441;50.856;6.076;2023-12-07T00:47:44;36.13;;;19.98;;
37593;SDS011;23441;50.856;6.076;2023-12-07T00:50:30;48.53;;;20.83;;
37593;SDS011;23441;50.856;6.076;2023-12-07T00:53:16;47.35;;;21.65;;
37593;SDS011;23441;50.856;6.076;2023-12-07T00:56:02;41.33;;;21.17;;
37593;SDS011;23441;50.856;6.076;2023-12-07T00:58:49;47.47;;;21.70;;
37593;SDS011;23441;50.856;6.076;2023-12-07T01:01:35;38.22;;;21.70;;
37593;SDS011;23441;50.856;6.076;2023-12-07T01:04:24;39.80;;;21.40;;
37593;SDS011;23441;50.856;6.076;2023-12-07T01:07:09;46.33;;;22.13;;
37593;SDS011;23441;50.856;6.076;2023-12-07T01:09:56;42.93;;;21.90;;
37593;SDS011;23441;50.856;6.076;2023-12-07T01:12:42;47.60;;;22.97;;
37593;SDS011;23441;50.856;6.076;2023-12-07T01:15:27;45.10;;;23.77;;
37593;SDS011;23441;50.856;6.076;2023-12-07T01:18:13;49.00;;;22.50;;
37593;SDS011;23441;50.856;6.076;2023-12-07T01:20:59;45.33;;;23.73;;
37593;SDS011;23441;50.856;6.076;2023-12-07T01:23:45;45.80;;;23.48;;
37593;SDS011;23441;50.856;6.076;2023-12-07T01:26:31;53.37;;;24.07;;
37593;SDS011;23441;50.856;6.076;2023-12-07T01:29:17;47.43;;;21.80;;
37593;SDS011;23441;50.856;6.076;2023-12-07T01:32:03;43.23;;;23.13;;
37593;SDS011;23441;50.856;6.076;2023-12-07T01:34:51;44.72;;;21.27;;
37593;SDS011;23441;50.856;6.076;2023-12-07T01:37:37;51.10;;;22.67;;
37593;SDS011;23441;50.856;6.076;2023-12-07T01:40:22;47.57;;;20.83;;
37593;SDS011;23441;50.856;6.076;2023-12-07T01:43:08;46.83;;;21.57;;
37593;SDS011;23441;50.856;6.076;2023-12-07T01:45:55;48.53;;;21.67;;
37593;SDS011;23441;50.856;6.076;2023-12-07T01:48:42;46.13;;;20.83;;
37593;SDS011;23441;50.856;6.076;2023-12-07T01:51:29;47.10;;;21.45;;
37593;SDS011;23441;50.856;6.076;2023-12-07T01:54:15;46.70;;;20.83;;
37593;SDS011;23441;50.856;6.076;2023-12-07T01:57:02;43.83;;;20.37;;
37593;SDS011;23441;50.856;6.076;2023-12-07T01:59:48;39.83;;;20.10;;
37593;SDS011;23441;50.856;6.076;2023-12-07T02:02:35;43.90;;;20.33;;
37593;SDS011;23441;50.856;6.076;2023-12-07T02:05:22;38.13;;;19.57;;
37593;SDS011;23441;50.856;6.076;2023-12-07T02:08:09;37.53;;;18.67;;
37593;SDS011;23441;50.856;6.076;2023-12-07T02:10:55;40.42;;;20.13;;
37593;SDS011;23441;50.856;6.076;2023-12-07T02:13:41;44.37;;;20.03;;
37593;SDS011;23441;50.856;6.076;2023-12-07T02:16:31;40.75;;;19.17;;
37593;SDS011;23441;50.856;6.076;2023-12-07T02:19:52;37.50;;;17.03;;
37593;SDS011;23441;50.856;6.076;2023-12-07T02:22:44;39.13;;;17.53;;
37593;SDS011;23441;50.856;6.076;2023-12-07T02:29:39;34.37;;;17.37;;
37593;SDS011;23441;50.856;6.076;2023-12-07T02:32:25;40.00;;;17.70;;
37593;SDS011;23441;50.856;6.076;2023-12-07T02:35:11;38.87;;;18.10;;
37593;SDS011;23441;50.856;6.076;2023-12-07T02:37:58;45.50;;;18.30;;
37593;SDS011;23441;50.856;6.076;2023-12-07T02:40:45;37.63;;;18.40;;
37593;SDS011;23441;50.856;6.076;2023-12-07T02:43:33;45.10;;;19.63;;
37593;SDS011;23441;50.856;6.076;2023-12-07T02:46:19;35.13;;;17.27;;
37593;SDS011;23441;50.856;6.076;2023-12-07T02:49:06;38.13;;;18.47;;
37593;SDS011;23441;50.856;6.076;2023-12-07T02:51:52;40.60;;;17.13;;
37593;SDS011;23441;50.856;6.076;2023-12-07T02:54:37;36.97;;;18.23;;
37593;SDS011;23441;50.856;6.076;2023-12-07T02:57:23;41.70;;;17.13;;
37593;SDS011;23441;50.856;6.076;2023-12-07T03:00:09;41.27;;;19.43;;
37593;SDS011;23441;50.856;6.076;2023-12-07T03:02:59;39.85;;;17.80;;
37593;SDS011;23441;50.856;6.076;2023-12-07T03:05:45;42.63;;;18.83;;
37593;SDS011;23441;50.856;6.076;2023-12-07T03:08:31;44.53;;;19.37;;
37593;SDS011;23441;50.856;6.076;2023-12-07T03:11:16;44.60;;;19.63;;
37593;SDS011;23441;50.856;6.076;2023-12-07T03:14:02;41.20;;;19.27;;
37593;SDS011;23441;50.856;6.076;2023-12-07T03:16:49;34.03;;;17.30;;
37593;SDS011;23441;50.856;6.076;2023-12-07T03:19:38;35.63;;;16.60;;
37593;SDS011;23441;50.856;6.076;2023-12-07T03:22:24;34.63;;;17.30;;
37593;SDS011;23441;50.856;6.076;2023-12-07T03:25:10;37.73;;;17.37;;
37593;SDS011;23441;50.856;6.076;2023-12-07T03:27:56;40.20;;;18.00;;
37593;SDS011;23441;50.856;6.076;2023-12-07T03:30:42;41.03;;;18.83;;
37593;SDS011;23441;50.856;6.076;2023-12-07T03:33:28;32.73;;;17.13;;
37593;SDS011;23441;50.856;6.076;2023-12-07T03:36:14;39.73;;;18.30;;
37593;SDS011;23441;50.856;6.076;2023-12-07T03:39:00;35.87;;;16.70;;
37593;SDS011;23441;50.856;6.076;2023-12-07T03:41:48;40.33;;;18.07;;
37593;SDS011;23441;50.856;6.076;2023-12-07T03:44:34;40.60;;;18.80;;
37593;SDS011;23441;50.856;6.076;2023-12-07T03:47:20;38.13;;;17.40;;
37593;SDS011;23441;50.856;6.076;2023-12-07T03:50:06;39.30;;;17.60;;
37593;SDS011;23441;50.856;6.076;2023-12-07T03:52:52;34.80;;;18.10;;
37593;SDS011;23441;50.856;6.076;2023-12-07T03:55:38;36.63;;;17.57;;
37593;SDS011;23441;50.856;6.076;2023-12-07T03:58:24;35.73;;;17.47;;
37593;SDS011;23441;50.856;6.076;2023-12-07T04:01:10;37.90;;;17.57;;
37593;SDS011;23441;50.856;6.076;2023-12-07T04:03:56;40.93;;;16.93;;
37593;SDS011;23441;50.856;6.076;2023-12-07T04:06:43;34.37;;;16.47;;
37593;SDS011;23441;50.856;6.076;2023-12-07T04:09:28;36.13;;;16.33;;
37593;SDS011;23441;50.856;6.076;2023-12-07T04:12:16;33.03;;;16.93;;
37593;SDS011;23441;50.856;6.076;2023-12-07T04:15:02;36.13;;;17.23;;
37593;SDS011;23441;50.856;6.076;2023-12-07T04:17:48;37.03;;;17.47;;
37593;SDS011;23441;50.856;6.076;2023-12-07T04:20:34;33.90;;;16.80;;
37593;SDS011;23441;50.856;6.076;2023-12-07T04:23:20;37.60;;;18.20;;
37593;SDS011;23441;50.856;6.076;2023-12-07T04:26:06;39.47;;;17.23;;
37593;SDS011;23441;50.856;6.076;2023-12-07T04:28:52;35.63;;;17.90;;
37593;SDS011;23441;50.856;6.076;2023-12-07T04:31:38;40.70;;;17.37;;
37593;SDS011;23441;50.856;6.076;2023-12-07T04:34:23;34.53;;;17.70;;
37593;SDS011;23441;50.856;6.076;2023-12-07T04:37:09;33.63;;;16.97;;
37593;SDS011;23441;50.856;6.076;2023-12-07T04:39:56;34.20;;;17.17;;
37593;SDS011;23441;50.856;6.076;2023-12-07T04:42:42;36.20;;;17.03;;
37593;SDS011;23441;50.856;6.076;2023-12-07T04:45:28;42.27;;;16.50;;
37593;SDS011;23441;50.856;6.076;2023-12-07T04:48:14;36.73;;;17.03;;
37593;SDS011;23441;50.856;6.076;2023-12-07T04:51:00;34.60;;;16.90;;
37593;SDS011;23441;50.856;6.076;2023-12-07T04:53:46;36.37;;;16.97;;
37593;SDS011;23441;50.856;6.076;2023-12-07T04:56:32;34.83;;;16.07;;
37593;SDS011;23441;50.856;6.076;2023-12-07T04:59:18;36.77;;;17.43;;
37593;SDS011;23441;50.856;6.076;2023-12-07T05:02:04;33.03;;;16.57;;
37593;SDS011;23441;50.856;6.076;2023-12-07T05:04:50;41.00;;;18.27;;
37593;SDS011;23441;50.856;6.076;2023-12-07T05:07:36;34.20;;;17.90;;
37593;SDS011;23441;50.856;6.076;2023-12-07T05:10:22;31.67;;;16.33;;
37593;SDS011;23441;50.856;6.076;2023-12-07T05:13:08;29.37;;;15.23;;
37593;SDS011;23441;50.856;6.076;2023-12-07T05:15:54;31.17;;;15.73;;
37593;SDS011;23441;50.856;6.076;2023-12-07T05:18:40;28.00;;;16.37;;
37593;SDS011;23441;50.856;6.076;2023-12-07T05:21:26;35.90;;;16.87;;
37593;SDS011;23441;50.856;6.076;2023-12-07T05:24:12;31.47;;;16.33;;
37593;SDS011;23441;50.856;6.076;2023-12-07T05:26:58;30.37;;;15.63;;
37593;SDS011;23441;50.856;6.076;2023-12-07T05:29:44;30.83;;;15.47;;
37593;SDS011;23441;50.856;6.076;2023-12-07T05:32:30;29.13;;;15.43;;
37593;SDS011;23441;50.856;6.076;2023-12-07T05:35:16;29.83;;;15.73;;
37593;SDS011;23441;50.856;6.076;2023-12-07T05:38:02;29.63;;;16.80;;
37593;SDS011;23441;50.856;6.076;2023-12-07T05:40:48;31.40;;;15.60;;
37593;SDS011;23441;50.856;6.076;2023-12-07T05:43:34;32.53;;;15.40;;
37593;SDS011;23441;50.856;6.076;2023-12-07T05:46:20;31.67;;;16.00;;
37593;SDS011;23441;50.856;6.076;2023-12-07T05:49:06;34.37;;;15.77;;
37593;SDS011;23441;50.856;6.076;2023-12-07T05:51:52;29.80;;;16.23;;
37593;SDS011;23441;50.856;6.076;2023-12-07T05:54:38;29.43;;;14.73;;
37593;SDS011;23441;50.856;6.076;2023-12-07T05:57:27;29.87;;;14.87;;
37593;SDS011;23441;50.856;6.076;2023-12-07T06:00:13;31.87;;;14.50;;
37593;SDS011;23441;50.856;6.076;2023-12-07T06:03:01;32.47;;;15.83;;
37593;SDS011;23441;50.856;6.076;2023-12-07T06:05:48;39.13;;;18.60;;
37593;SDS011;23441;50.856;6.076;2023-12-07T06:08:34;33.27;;;17.20;;
37593;SDS011;23441;50.856;6.076;2023-12-07T06:11:20;33.37;;;17.57;;
37593;SDS011;23441;50.856;6.076;2023-12-07T06:14:06;41.17;;;20.47;;
37593;SDS011;23441;50.856;6.076;2023-12-07T06:16:52;34.30;;;17.93;;
37593;SDS011;23441;50.856;6.076;2023-12-07T06:19:38;35.07;;;16.53;;
37593;SDS011;23441;50.856;6.076;2023-12-07T06:22:24;33.27;;;16.70;;
37593;SDS011;23441;50.856;6.076;2023-12-07T06:25:10;30.30;;;15.63;;
37593;SDS011;23441;50.856;6.076;2023-12-07T06:27:56;39.30;;;16.73;;
37593;SDS011;23441;50.856;6.076;2023-12-07T06:30:42;32.33;;;16.33;;
37593;SDS011;23441;50.856;6.076;2023-12-07T06:33:28;31.23;;;16.97;;
37593;SDS011;23441;50.856;6.076;2023-12-07T06:36:18;32.93;;;16.87;;
37593;SDS011;23441;50.856;6.076;2023-12-07T06:39:08;31.80;;;16.00;;
37593;SDS011;23441;50.856;6.076;2023-12-07T06:41:54;37.00;;;16.97;;
37593;SDS011;23441;50.856;6.076;2023-12-07T06:44:43;32.30;;;16.60;;
37593;SDS011;23441;50.856;6.076;2023-12-07T06:47:31;32.87;;;17.60;;
37593;SDS011;23441;50.856;6.076;2023-12-07T06:50:17;31.93;;;16.40;;
37593;SDS011;23441;50.856;6.076;2023-12-07T06:53:03;33.63;;;16.37;;
37593;SDS011;23441;50.856;6.076;2023-12-07T06:55:49;28.00;;;14.70;;
37593;SDS011;23441;50.856;6.076;2023-12-07T06:58:35;28.87;;;14.57;;
37593;SDS011;23441;50.856;6.076;2023-12-07T07:01:21;32.27;;;14.13;;
37593;SDS011;23441;50.856;6.076;2023-12-07T07:04:06;26.50;;;13.87;;
37593;SDS011;23441;50.856;6.076;2023-12-07T07:06:54;28.13;;;14.90;;
37593;SDS011;23441;50.856;6.076;2023-12-07T07:09:39;25.83;;;13.77;;
37593;SDS011;23441;50.856;6.076;2023-12-07T07:12:25;31.77;;;14.10;;
37593;SDS011;23441;50.856;6.076;2023-12-07T07:15:11;24.87;;;13.90;;
37593;SDS011;23441;50.856;6.076;2023-12-07T07:17:57;26.63;;;13.83;;
37593;SDS011;23441;50.856;6.076;2023-12-07T07:20:43;26.13;;;13.37;;
37593;SDS011;23441;50.856;6.076;2023-12-07T07:23:30;26.20;;;13.50;;
37593;SDS011;23441;50.856;6.076;2023-12-07T07:26:16;26.60;;;14.10;;
37593;SDS011;23441;50.856;6.076;2023-12-07T07:29:02;25.20;;;13.73;;
37593;SDS011;23441;50.856;6.076;2023-12-07T07:31:49;27.20;;;13.50;;
37593;SDS011;23441;50.856;6.076;2023-12-07T07:34:34;26.00;;;13.27;;
37593;SDS011;23441;50.856;6.076;2023-12-07T07:37:21;28.10;;;12.83;;
37593;SDS011;23441;50.856;6.076;2023-12-07T07:40:08;22.70;;;12.47;;
37593;SDS011;23441;50.856;6.076;2023-12-07T07:42:56;25.23;;;13.20;;
37593;SDS011;23441;50.856;6.076;2023-12-07T07:45:43;27.83;;;13.43;;
37593;SDS011;23441;50.856;6.076;2023-12-07T07:48:29;21.50;;;12.23;;
37593;SDS011;23441;50.856;6.076;2023-12-07T07:51:14;20.43;;;11.60;;
37593;SDS011;23441;50.856;6.076;2023-12-07T07:54:00;25.63;;;11.67;;
37593;SDS011;23441;50.856;6.076;2023-12-07T07:56:46;24.97;;;12.53;;
37593;SDS011;23441;50.856;6.076;2023-12-07T07:59:32;21.90;;;11.50;;
37593;SDS011;23441;50.856;6.076;2023-12-07T08:02:18;20.50;;;9.77;;
37593;SDS011;23441;50.856;6.076;2023-12-07T08:05:06;21.17;;;11.00;;
37593;SDS011;23441;50.856;6.076;2023-12-07T08:07:52;25.10;;;11.60;;
37593;SDS011;23441;50.856;6.076;2023-12-07T08:10:39;18.87;;;10.53;;
37593;SDS011;23441;50.856;6.076;2023-12-07T08:13:25;21.57;;;10.27;;
37593;SDS011;23441;50.856;6.076;2023-12-07T08:16:11;18.13;;;10.57;;
37593;SDS011;23441;50.856;6.076;2023-12-07T08:18:57;24.00;;;12.33;;
37593;SDS011;23441;50.856;6.076;2023-12-07T08:21:43;22.63;;;12.30;;
37593;SDS011;23441;50.856;6.076;2023-12-07T08:24:29;21.13;;;11.80;;
37593;SDS011;23441;50.856;6.076;2023-12-07T08:27:15;19.70;;;10.20;;
37593;SDS011;23441;50.856;6.076;2023-12-07T08:30:01;23.10;;;12.00;;
37593;SDS011;23441;50.856;6.076;2023-12-07T08:32:48;25.23;;;11.57;;
37593;SDS011;23441;50.856;6.076;2023-12-07T08:35:34;25.30;;;11.70;;
37593;SDS011;23441;50.856;6.076;2023-12-07T08:38:20;23.03;;;11.93;;
37593;SDS011;23441;50.856;6.076;2023-12-07T08:41:07;18.57;;;10.67;;
37593;SDS011;23441;50.856;6.076;2023-12-07T08:43:53;19.30;;;10.27;;
37593;SDS011;23441;50.856;6.076;2023-12-07T08:46:39;21.93;;;10.97;;
37593;SDS011;23441;50.856;6.076;2023-12-07T08:49:27;18.97;;;9.90;;
37593;SDS011;23441;50.856;6.076;2023-12-07T08:52:13;20.73;;;10.43;;
37593;SDS011;23441;50.856;6.076;2023-12-07T08:54:59;20.00;;;10.77;;
37593;SDS011;23441;50.856;6.076;2023-12-07T08:57:45;22.87;;;10.57;;
37593;SDS011;23441;50.856;6.076;2023-12-07T09:00:31;20.50;;;10.57;;
37593;SDS011;23441;50.856;6.076;2023-12-07T09:03:17;20.87;;;10.23;;
37593;SDS011;23441;50.856;6.076;2023-12-07T09:06:03;18.47;;;10.27;;
37593;SDS011;23441;50.856;6.076;2023-12-07T09:08:51;23.50;;;11.17;;
37593;SDS011;23441;50.856;6.076;2023-12-07T09:11:37;21.57;;;10.57;;
37593;SDS011;23441;50.856;6.076;2023-12-07T09:14:23;21.10;;;10.63;;
37593;SDS011;23441;50.856;6.076;2023-12-07T09:17:09;21.37;;;11.17;;
37593;SDS011;23441;50.856;6.076;2023-12-07T09:19:55;20.63;;;11.47;;
37593;SDS011;23441;50.856;6.076;2023-12-07T09:22:44;20.20;;;10.27;;
37593;SDS011;23441;50.856;6.076;2023-12-07T09:25:31;18.83;;;10.67;;
37593;SDS011;23441;50.856;6.076;2023-12-07T09:28:17;22.67;;;11.00;;
37593;SDS011;23441;50.856;6.076;2023-12-07T09:31:03;24.07;;;11.07;;
37593;SDS011;23441;50.856;6.076;2023-12-07T09:33:49;21.53;;;10.33;;
37593;SDS011;23441;50.856;6.076;2023-12-07T09:36:35;18.07;;;9.80;;
37593;SDS011;23441;50.856;6.076;2023-12-07T09:39:21;19.00;;;10.33;;
37593;SDS011;23441;50.856;6.076;2023-12-07T09:42:07;21.53;;;10.53;;
37593;SDS011;23441;50.856;6.076;2023-12-07T09:44:54;24.07;;;10.30;;
37593;SDS011;23441;50.856;6.076;2023-12-07T09:47:40;18.27;;;9.83;;
37593;SDS011;23441;50.856;6.076;2023-12-07T09:50:27;20.37;;;9.93;;
37593;SDS011;23441;50.856;6.076;2023-12-07T09:53:13;22.20;;;10.53;;
37593;SDS011;23441;50.856;6.076;2023-12-07T09:55:59;18.73;;;10.43;;
37593;SDS011;23441;50.856;6.076;2023-12-07T09:58:45;20.90;;;10.33;;
37593;SDS011;23441;50.856;6.076;2023-12-07T10:01:32;22.70;;;10.55;;
37593;SDS011;23441;50.856;6.076;2023-12-07T10:04:21;17.37;;;9.90;;
37593;SDS011;23441;50.856;6.076;2023-12-07T10:07:09;18.60;;;9.50;;
37593;SDS011;23441;50.856;6.076;2023-12-07T10:09:55;21.20;;;9.90;;
37593;SDS011;23441;50.856;6.076;2023-12-07T10:12:48;18.93;;;9.77;;
37593;SDS011;23441;50.856;6.076;2023-12-07T10:15:37;17.33;;;9.73;;
37593;SDS011;23441;50.856;6.076;2023-12-07T10:18:23;17.67;;;9.20;;
37593;SDS011;23441;50.856;6.076;2023-12-07T10:21:09;15.13;;;8.53;;
37593;SDS011;23441;50.856;6.076;2023-12-07T10:23:55;16.85;;;8.68;;
37593;SDS011;23441;50.856;6.076;2023-12-07T10:26:41;17.60;;;9.05;;
37593;SDS011;23441;50.856;6.076;2023-12-07T10:29:29;18.27;;;8.60;;
37593;SDS011;23441;50.856;6.076;2023-12-07T10:32:15;15.65;;;8.60;;
37593;SDS011;23441;50.856;6.076;2023-12-07T10:35:01;15.73;;;8.00;;
37593;SDS011;23441;50.856;6.076;2023-12-07T10:37:47;12.23;;;7.47;;
37593;SDS011;23441;50.856;6.076;2023-12-07T10:40:33;12.52;;;7.22;;
37593;SDS011;23441;50.856;6.076;2023-12-07T10:43:19;11.55;;;7.20;;
37593;SDS011;23441;50.856;6.076;2023-12-07T10:46:06;11.73;;;7.55;;
37593;SDS011;23441;50.856;6.076;2023-12-07T10:48:55;16.58;;;7.88;;
37593;SDS011;23441;50.856;6.076;2023-12-07T10:54:50;11.40;;;6.65;;
37593;SDS011;23441;50.856;6.076;2023-12-07T10:57:41;11.25;;;6.68;;
37593;SDS011;23441;50.856;6.076;2023-12-07T11:00:29;10.75;;;6.13;;
37593;SDS011;23441;50.856;6.076;2023-12-07T11:03:15;13.65;;;6.32;;
37593;SDS011;23441;50.856;6.076;2023-12-07T11:06:06;8.80;;;5.82;;
37593;SDS011;23441;50.856;6.076;2023-12-07T11:08:57;12.30;;;6.78;;
37593;SDS011;23441;50.856;6.076;2023-12-07T11:11:50;9.85;;;6.80;;
37593;SDS011;23441;50.856;6.076;2023-12-07T11:14:42;12.75;;;7.15;;
37593;SDS011;23441;50.856;6.076;2023-12-07T11:17:28;12.77;;;6.78;;
37593;SDS011;23441;50.856;6.076;2023-12-07T11:20:18;11.32;;;7.07;;
37593;SDS011;23441;50.856;6.076;2023-12-07T11:23:05;11.00;;;6.57;;
37593;SDS011;23441;50.856;6.076;2023-12-07T11:25:52;10.52;;;6.38;;
37593;SDS011;23441;50.856;6.076;2023-12-07T11:28:40;8.10;;;5.13;;
37593;SDS011;23441;50.856;6.076;2023-12-07T11:31:26;9.40;;;5.80;;
37593;SDS011;23441;50.856;6.076;2023-12-07T11:34:13;9.07;;;5.40;;
37593;SDS011;23441;50.856;6.076;2023-12-07T11:36:59;10.35;;;5.75;;
37593;SDS011;23441;50.856;6.076;2023-12-07T11:39:45;9.00;;;5.10;;
37593;SDS011;23441;50.856;6.076;2023-12-07T11:42:31;9.60;;;5.45;;
37593;SDS011;23441;50.856;6.076;2023-12-07T11:45:32;10.82;;;5.97;;
37593;SDS011;23441;50.856;6.076;2023-12-07T11:48:31;8.45;;;4.80;;
37593;SDS011;23441;50.856;6.076;2023-12-07T11:51:17;6.35;;;4.78;;
37593;SDS011;23441;50.856;6.076;2023-12-07T11:54:03;7.35;;;4.10;;
37593;SDS011;23441;50.856;6.076;2023-12-07T11:56:56;7.07;;;4.78;;
37593;SDS011;23441;50.856;6.076;2023-12-07T11:59:46;6.88;;;4.90;;
37593;SDS011;23441;50.856;6.076;2023-12-07T12:02:33;8.75;;;4.22;;
37593;SDS011;23441;50.856;6.076;2023-12-07T12:05:21;8.27;;;4.55;;
37593;SDS011;23441;50.856;6.076;2023-12-07T12:08:07;8.13;;;4.97;;
37593;SDS011;23441;50.856;6.076;2023-12-07T12:10:54;6.45;;;4.45;;
37593;SDS011;23441;50.856;6.076;2023-12-07T12:13:42;7.30;;;4.25;;
37593;SDS011;23441;50.856;6.076;2023-12-07T12:16:32;6.72;;;4.32;;
37593;SDS011;23441;50.856;6.076;2023-12-07T12:19:19;8.52;;;4.93;;
37593;SDS011;23441;50.856;6.076;2023-12-07T12:22:05;6.32;;;4.20;;
37593;SDS011;23441;50.856;6.076;2023-12-07T12:24:51;6.32;;;4.15;;
37593;SDS011;23441;50.856;6.076;2023-12-07T12:27:38;7.45;;;4.47;;
37593;SDS011;23441;50.856;6.076;2023-12-07T12:30:24;7.03;;;4.05;;
37593;SDS011;23441;50.856;6.076;2023-12-07T12:33:10;6.55;;;4.13;;
37593;SDS011;23441;50.856;6.076;2023-12-07T12:36:07;7.30;;;3.55;;
37593;SDS011;23441;50.856;6.076;2023-12-07T12:38:53;7.10;;;4.45;;
37593;SDS011;23441;50.856;6.076;2023-12-07T12:41:41;9.70;;;3.60;;
37593;SDS011;23441;50.856;6.076;2023-12-07T12:44:27;6.68;;;4.30;;
37593;SDS011;23441;50.856;6.076;2023-12-07T12:47:13;8.18;;;3.97;;
37593;SDS011;23441;50.856;6.076;2023-12-07T12:49:59;5.55;;;3.58;;
37593;SDS011;23441;50.856;6.076;2023-12-07T12:52:45;8.27;;;4.38;;
37593;SDS011;23441;50.856;6.076;2023-12-07T12:55:36;7.03;;;4.38;;
37593;SDS011;23441;50.856;6.076;2023-12-07T12:58:24;8.25;;;3.95;;
37593;SDS011;23441;50.856;6.076;2023-12-07T13:01:10;6.07;;;3.97;;
37593;SDS011;23441;50.856;6.076;2023-12-07T13:03:56;8.45;;;4.05;;
37593;SDS011;23441;50.856;6.076;2023-12-07T13:06:43;6.20;;;3.72;;
37593;SDS011;23441;50.856;6.076;2023-12-07T13:09:29;7.57;;;3.80;;
37593;SDS011;23441;50.856;6.076;2023-12-07T13:12:14;5.30;;;3.67;;
37593;SDS011;23441;50.856;6.076;2023-12-07T13:15:00;5.28;;;3.33;;
37593;SDS011;23441;50.856;6.076;2023-12-07T13:17:46;5.07;;;3.38;;
37593;SDS011;23441;50.856;6.076;2023-12-07T13:20:33;4.35;;;3.22;;
37593;SDS011;23441;50.856;6.076;2023-12-07T13:23:20;5.43;;;3.20;;
37593;SDS011;23441;50.856;6.076;2023-12-07T13:26:06;7.45;;;3.30;;
37593;SDS011;23441;50.856;6.076;2023-12-07T13:28:52;6.15;;;3.55;;
37593;SDS011;23441;50.856;6.076;2023-12-07T13:31:38;4.45;;;3.25;;
37593;SDS011;23441;50.856;6.076;2023-12-07T13:34:24;4.25;;;3.30;;
37593;SDS011;23441;50.856;6.076;2023-12-07T13:37:11;8.05;;;3.78;;
37593;SDS011;23441;50.856;6.076;2023-12-07T13:39:57;8.43;;;3.80;;
37593;SDS011;23441;50.856;6.076;2023-12-07T13:42:44;6.78;;;4.43;;
37593;SDS011;23441;50.856;6.076;2023-12-07T13:45:30;14.13;;;4.53;;
37593;SDS011;23441;50.856;6.076;2023-12-07T13:48:17;6.78;;;4.25;;
37593;SDS011;23441;50.856;6.076;2023-12-07T13:51:04;6.90;;;3.83;;
37593;SDS011;23441;50.856;6.076;2023-12-07T13:53:50;7.65;;;4.10;;
37593;SDS011;23441;50.856;6.076;2023-12-07T13:56:40;5.35;;;3.17;;
37593;SDS011;23441;50.856;6.076;2023-12-07T13:59:26;9.68;;;3.47;;
37593;SDS011;23441;50.856;6.076;2023-12-07T14:02:12;8.10;;;3.55;;
37593;SDS011;23441;50.856;6.076;2023-12-07T14:04:58;8.30;;;3.45;;
37593;SDS011;23441;50.856;6.076;2023-12-07T14:07:44;5.78;;;3.55;;
37593;SDS011;23441;50.856;6.076;2023-12-07T14:10:31;5.78;;;3.88;;
37593;SDS011;23441;50.856;6.076;2023-12-07T14:13:17;5.65;;;3.90;;
37593;SDS011;23441;50.856;6.076;2023-12-07T14:16:03;7.93;;;3.47;;
37593;SDS011;23441;50.856;6.076;2023-12-07T14:18:49;6.00;;;3.50;;
37593;SDS011;23441;50.856;6.076;2023-12-07T14:21:35;7.25;;;3.47;;
37593;SDS011;23441;50.856;6.076;2023-12-07T14:24:22;5.15;;;3.65;;
37593;SDS011;23441;50.856;6.076;2023-12-07T14:27:09;4.90;;;3.17;;
37593;SDS011;23441;50.856;6.076;2023-12-07T14:29:55;6.95;;;3.50;;
37593;SDS011;23441;50.856;6.076;2023-12-07T14:32:41;5.35;;;3.40;;
37593;SDS011;23441;50.856;6.076;2023-12-07T14:35:29;5.45;;;3.70;;
37593;SDS011;23441;50.856;6.076;2023-12-07T14:38:15;5.95;;;3.78;;
37593;SDS011;23441;50.856;6.076;2023-12-07T14:41:01;6.60;;;3.88;;
37593;SDS011;23441;50.856;6.076;2023-12-07T14:43:49;5.47;;;3.83;;
37593;SDS011;23441;50.856;6.076;2023-12-07T14:46:35;11.13;;;4.75;;
37593;SDS011;23441;50.856;6.076;2023-12-07T14:49:21;7.82;;;4.70;;
37593;SDS011;23441;50.856;6.076;2023-12-07T14:52:08;8.90;;;5.03;;
37593;SDS011;23441;50.856;6.076;2023-12-07T14:54:54;8.07;;;4.88;;
37593;SDS011;23441;50.856;6.076;2023-12-07T14:57:40;10.15;;;4.63;;
37593;SDS011;23441;50.856;6.076;2023-12-07T15:00:26;7.53;;;4.80;;
37593;SDS011;23441;50.856;6.076;2023-12-07T15:03:14;11.30;;;5.40;;
37593;SDS011;23441;50.856;6.076;2023-12-07T15:05:59;6.90;;;5.32;;
37593;SDS011;23441;50.856;6.076;2023-12-07T15:08:46;11.40;;;5.65;;
37593;SDS011;23441;50.856;6.076;2023-12-07T15:11:35;11.45;;;6.10;;
37593;SDS011;23441;50.856;6.076;2023-12-07T15:14:21;12.23;;;7.00;;
37593;SDS011;23441;50.856;6.076;2023-12-07T15:17:07;13.15;;;7.22;;
37593;SDS011;23441;50.856;6.076;2023-12-07T15:19:53;13.10;;;7.30;;
37593;SDS011;23441;50.856;6.076;2023-12-07T15:22:39;11.30;;;7.28;;
37593;SDS011;23441;50.856;6.076;2023-12-07T15:25:27;12.40;;;6.93;;
37593;SDS011;23441;50.856;6.076;2023-12-07T15:28:14;12.00;;;6.40;;
37593;SDS011;23441;50.856;6.076;2023-12-07T15:31:00;10.27;;;6.30;;
37593;SDS011;23441;50.856;6.076;2023-12-07T15:33:46;11.32;;;5.93;;
37593;SDS011;23441;50.856;6.076;2023-12-07T15:36:32;11.10;;;6.55;;
37593;SDS011;23441;50.856;6.076;2023-12-07T15:39:18;10.50;;;6.40;;
37593;SDS011;23441;50.856;6.076;2023-12-07T15:42:04;11.88;;;6.25;;
37593;SDS011;23441;50.856;6.076;2023-12-07T15:44:50;12.32;;;6.50;;
37593;SDS011;23441;50.856;6.076;2023-12-07T15:47:36;12.95;;;6.75;;
37593;SDS011;23441;50.856;6.076;2023-12-07T15:50:22;12.85;;;7.35;;
37593;SDS011;23441;50.856;6.076;2023-12-07T15:53:08;10.23;;;6.30;;
37593;SDS011;23441;50.856;6.076;2023-12-07T15:55:53;11.88;;;6.90;;
37593;SDS011;23441;50.856;6.076;2023-12-07T15:58:39;12.13;;;6.82;;
37593;SDS011;23441;50.856;6.076;2023-12-07T16:01:25;10.70;;;6.27;;
37593;SDS011;23441;50.856;6.076;2023-12-07T16:04:11;11.32;;;6.57;;
37593;SDS011;23441;50.856;6.076;2023-12-07T16:07:00;11.52;;;7.25;;
37593;SDS011;23441;50.856;6.076;2023-12-07T16:09:49;12.20;;;6.78;;
37593;SDS011;23441;50.856;6.076;2023-12-07T16:12:35;11.40;;;6.60;;
37593;SDS011;23441;50.856;6.076;2023-12-07T16:15:21;10.52;;;6.97;;
37593;SDS011;23441;50.856;6.076;2023-12-07T16:18:07;15.18;;;6.78;;
37593;SDS011;23441;50.856;6.076;2023-12-07T16:20:53;12.27;;;7.45;;
37593;SDS011;23441;50.856;6.076;2023-12-07T16:23:39;15.73;;;7.13;;
37593;SDS011;23441;50.856;6.076;2023-12-07T16:26:25;13.43;;;7.17;;
37593;SDS011;23441;50.856;6.076;2023-12-07T16:29:11;10.80;;;7.57;;